createdAt,value
2023-03-16T00:00:28.789Z,5.10
2023-03-16T00:02:51.014Z,7.03
2023-03-16T00:05:14.411Z,7.67
2023-03-16T00:07:36.170Z,7.23
2023-03-16T00:09:57.782Z,5.73
2023-03-16T00:12:19.634Z,5.43
2023-03-16T00:14:47.778Z,7.33
2023-03-16T00:17:18.813Z,6.73
2023-03-16T00:19:46.628Z,5.80
2023-03-16T00:22:08.417Z,6.70
2023-03-16T00:24:30.034Z,5.70
2023-03-16T00:26:54.901Z,6.17
2023-03-16T00:29:16.593Z,7.07
2023-03-16T00:31:45.143Z,5.67
2023-03-16T00:34:06.806Z,7.30
2023-03-16T00:36:28.580Z,7.80
2023-03-16T00:38:50.403Z,5.83
2023-03-16T00:41:14.841Z,5.50
2023-03-16T00:46:07.049Z,7.63
2023-03-16T00:48:28.791Z,7.87
2023-03-16T00:50:54.303Z,8.27
2023-03-16T00:53:16.145Z,5.90
2023-03-16T00:55:38.271Z,6.70
2023-03-16T00:57:59.896Z,6.97
2023-03-16T01:00:22.346Z,6.13
2023-03-16T01:02:47.196Z,5.40
2023-03-16T01:05:09.600Z,6.57
2023-03-16T01:07:31.489Z,6.33
2023-03-16T01:09:53.134Z,5.97
2023-03-16T01:12:18.444Z,7.27
2023-03-16T01:14:41.674Z,6.87
2023-03-16T01:17:08.374Z,6.30
2023-03-16T01:19:30.508Z,6.60
2023-03-16T01:21:52.367Z,6.17
2023-03-16T01:24:14.061Z,7.53
2023-03-16T01:26:36.585Z,5.50
2023-03-16T01:28:58.382Z,8.37
2023-03-16T01:31:20.095Z,5.87
2023-03-16T01:33:43.462Z,5.47
2023-03-16T01:36:12.587Z,6.20
2023-03-16T01:38:44.155Z,7.73
2023-03-16T01:41:06.944Z,7.40
2023-03-16T01:43:32.076Z,6.43
2023-03-16T01:46:05.969Z,6.30
2023-03-16T01:49:23.849Z,6.77
2023-03-16T01:52:02.968Z,8.20
2023-03-16T01:54:33.885Z,5.40
2023-03-16T01:57:10.393Z,4.80
2023-03-16T01:59:41.390Z,4.77
2023-03-16T02:02:03.925Z,6.13
2023-03-16T02:07:11.069Z,6.37
2023-03-16T02:09:42.824Z,6.13
2023-03-16T02:12:07.125Z,5.90
2023-03-16T02:14:33.943Z,5.73
2023-03-16T02:16:56.941Z,5.77
2023-03-16T02:19:35.568Z,6.87
2023-03-16T02:22:08.771Z,6.60
2023-03-16T02:24:31.208Z,5.67
2023-03-16T02:27:04.444Z,7.53
2023-03-16T02:29:57.965Z,6.40
2023-03-16T02:32:24.747Z,5.97
2023-03-16T02:34:46.578Z,6.13
2023-03-16T02:37:10.023Z,5.40
2023-03-16T02:39:31.746Z,4.80
2023-03-16T02:41:54.978Z,4.60
2023-03-16T02:44:25.638Z,6.33
2023-03-16T02:46:49.274Z,6.07
2023-03-16T02:49:26.172Z,5.37
2023-03-16T02:51:48.260Z,5.63
2023-03-16T02:54:10.466Z,5.30
2023-03-16T02:56:33.561Z,5.20
2023-03-16T02:58:57.330Z,5.00
2023-03-16T03:01:19.839Z,4.23
2023-03-16T03:03:41.498Z,4.30
2023-03-16T03:06:03.219Z,4.27
2023-03-16T03:08:29.994Z,6.23
2023-03-16T03:10:51.566Z,4.70
2023-03-16T03:13:13.712Z,8.10
2023-03-16T03:15:36.001Z,5.30
2023-03-16T03:18:04.271Z,5.73
2023-03-16T03:20:26.979Z,5.07
2023-03-16T03:22:50.193Z,6.50
2023-03-16T03:25:15.078Z,5.07
2023-03-16T03:27:37.068Z,5.67
2023-03-16T03:30:02.053Z,5.87
2023-03-16T03:32:23.967Z,7.03
2023-03-16T03:34:45.581Z,6.00
2023-03-16T03:37:07.270Z,4.50
2023-03-16T03:39:30.827Z,8.65
2023-03-16T03:41:54.605Z,6.60
2023-03-16T03:44:17.283Z,6.03
2023-03-16T03:46:39.143Z,5.07
2023-03-16T03:49:03.828Z,4.17
2023-03-16T03:51:27.241Z,5.23
2023-03-16T03:53:58.132Z,7.27
2023-03-16T03:56:36.498Z,6.03
2023-03-16T03:59:00.489Z,6.72
2023-03-16T04:01:49.106Z,6.17
2023-03-16T04:04:11.018Z,5.87
2023-03-16T04:06:33.051Z,5.97
2023-03-16T04:08:54.782Z,5.77
2023-03-16T04:11:21.568Z,4.90
2023-03-16T04:13:43.549Z,4.67
2023-03-16T04:16:06.096Z,4.97
2023-03-16T04:18:38.643Z,7.10
2023-03-16T04:21:01.347Z,6.97
2023-03-16T04:23:24.955Z,5.90
2023-03-16T04:25:48.453Z,5.38
2023-03-16T04:28:12.953Z,4.97
2023-03-16T04:30:35.264Z,6.40
2023-03-16T04:33:11.741Z,5.27
2023-03-16T04:35:33.427Z,5.17
2023-03-16T04:37:55.046Z,5.27
2023-03-16T04:40:23.631Z,7.13
2023-03-16T04:42:54.606Z,5.70
2023-03-16T04:45:20.194Z,4.93
2023-03-16T04:47:44.962Z,5.53
2023-03-16T04:50:09.064Z,6.97
2023-03-16T04:52:31.172Z,6.35
2023-03-16T04:54:53.412Z,6.63
2023-03-16T04:57:19.240Z,5.77
2023-03-16T04:59:43.894Z,5.77
2023-03-16T05:02:14.260Z,4.93
2023-03-16T05:04:36.093Z,5.30
2023-03-16T05:06:57.882Z,4.53
2023-03-16T05:09:23.914Z,9.57
2023-03-16T05:11:45.541Z,6.03
2023-03-16T05:14:07.478Z,5.00
2023-03-16T05:16:38.327Z,6.30
2023-03-16T05:19:01.422Z,7.37
2023-03-16T05:21:26.343Z,4.27
2023-03-16T05:23:58.126Z,7.40
2023-03-16T05:26:19.731Z,8.17
2023-03-16T05:28:42.647Z,5.10
2023-03-16T05:31:07.233Z,5.03
2023-03-16T05:33:39.135Z,6.40
2023-03-16T05:36:08.202Z,8.47
2023-03-16T05:38:32.086Z,4.80
2023-03-16T05:40:54.524Z,5.63
2023-03-16T05:45:54.488Z,5.07
2023-03-16T05:48:16.147Z,7.73
2023-03-16T05:50:42.079Z,6.20
2023-03-16T05:53:04.286Z,6.47
2023-03-16T05:55:25.975Z,5.87
2023-03-16T05:57:53.320Z,7.13
2023-03-16T06:00:16.773Z,4.87
2023-03-16T06:02:51.427Z,6.47
2023-03-16T06:05:14.160Z,7.03
2023-03-16T06:07:37.315Z,5.95
2023-03-16T06:09:58.906Z,5.20
2023-03-16T06:12:21.023Z,5.40
2023-03-16T06:14:42.673Z,4.77
2023-03-16T06:17:05.157Z,6.27
2023-03-16T06:19:27.662Z,5.77
2023-03-16T06:21:54.055Z,5.83
2023-03-16T06:24:15.983Z,6.00
2023-03-16T06:26:37.796Z,5.60
2023-03-16T06:29:02.169Z,7.50
2023-03-16T06:31:24.153Z,5.93
2023-03-16T06:33:45.948Z,5.10
2023-03-16T06:36:08.659Z,5.83
2023-03-16T06:38:37.208Z,5.57
2023-03-16T06:41:06.561Z,7.90
2023-03-16T06:43:29.634Z,6.73
2023-03-16T06:45:51.270Z,5.63
2023-03-16T06:48:12.915Z,8.10
2023-03-16T06:50:34.553Z,7.77
2023-03-16T06:52:56.174Z,8.00
2023-03-16T06:55:18.298Z,6.23
2023-03-16T06:57:42.601Z,6.90
2023-03-16T07:00:04.996Z,8.03
2023-03-16T07:02:26.692Z,9.03
2023-03-16T07:04:48.715Z,7.30
2023-03-16T07:07:12.359Z,9.40
2023-03-16T07:09:36.385Z,8.27
2023-03-16T07:11:59.465Z,9.07
2023-03-16T07:14:23.293Z,7.60
2023-03-16T07:16:46.136Z,8.67
2023-03-16T07:19:08.863Z,8.03
2023-03-16T07:21:39.075Z,6.20
2023-03-16T07:24:03.466Z,7.10
2023-03-16T07:26:32.808Z,9.57
2023-03-16T07:28:57.575Z,7.65
2023-03-16T07:31:19.771Z,5.37
2023-03-16T07:33:42.062Z,6.73
2023-03-16T07:36:10.652Z,5.97
2023-03-16T07:38:36.677Z,9.83
2023-03-16T07:41:01.737Z,7.40
2023-03-16T07:43:23.449Z,7.27
2023-03-16T07:45:52.505Z,7.23
2023-03-16T07:48:14.786Z,9.37
2023-03-16T07:50:48.173Z,6.77
2023-03-16T07:53:10.730Z,6.30
2023-03-16T07:55:36.820Z,6.90
2023-03-16T08:00:26.530Z,4.77
2023-03-16T08:02:48.400Z,8.97
2023-03-16T08:05:11.018Z,8.17
2023-03-16T08:07:34.626Z,6.90
2023-03-16T08:10:04.493Z,5.80
2023-03-16T08:12:37.297Z,6.47
2023-03-16T08:14:59.160Z,7.13
2023-03-16T08:17:24.552Z,6.73
2023-03-16T08:19:46.562Z,6.87
2023-03-16T08:22:08.689Z,6.13
2023-03-16T08:24:35.285Z,8.00
2023-03-16T08:26:59.882Z,6.83
2023-03-16T08:29:22.152Z,5.50
2023-03-16T08:31:44.483Z,6.73
2023-03-16T08:34:17.968Z,6.30
2023-03-16T08:36:39.698Z,6.27
2023-03-16T08:39:07.064Z,5.47
2023-03-16T08:41:36.772Z,6.63
2023-03-16T08:44:03.450Z,7.90
2023-03-16T08:46:25.356Z,5.57
2023-03-16T08:48:52.523Z,8.23
2023-03-16T08:51:14.173Z,6.37
2023-03-16T08:53:36.736Z,5.27
2023-03-16T08:56:04.796Z,8.57
2023-03-16T08:58:26.395Z,6.73
2023-03-16T09:00:50.491Z,5.77
2023-03-16T09:03:12.257Z,3.83
2023-03-16T09:05:34.493Z,5.37
2023-03-16T09:07:56.366Z,5.87
2023-03-16T09:10:19.021Z,4.83
2023-03-16T09:12:40.992Z,6.13
2023-03-16T09:15:02.806Z,6.57
2023-03-16T09:17:24.704Z,6.77
2023-03-16T09:19:52.227Z,5.17
2023-03-16T09:22:15.304Z,5.70
2023-03-16T09:24:37.545Z,4.13
2023-03-16T09:27:00.007Z,5.20
2023-03-16T09:29:22.490Z,5.80
2023-03-16T09:31:44.160Z,5.90
2023-03-16T09:34:05.838Z,5.17
2023-03-16T09:36:27.445Z,6.40
2023-03-16T09:38:49.341Z,4.43
2023-03-16T09:41:51.400Z,6.27
2023-03-16T09:44:32.781Z,4.73
2023-03-16T09:46:59.394Z,4.67
2023-03-16T09:49:27.586Z,5.17
2023-03-16T09:52:17.083Z,6.27
2023-03-16T09:54:55.978Z,4.53
2023-03-16T09:57:42.106Z,3.40
2023-03-16T10:00:23.121Z,5.97
2023-03-16T10:03:09.938Z,4.93
2023-03-16T10:05:33.689Z,4.33
2023-03-16T10:08:12.764Z,4.53
2023-03-16T10:11:02.840Z,4.47
2023-03-16T10:13:42.445Z,4.83
2023-03-16T10:16:34.680Z,5.00
2023-03-16T10:19:20.677Z,7.90
2023-03-16T10:21:43.294Z,3.93
2023-03-16T10:24:25.202Z,3.70
2023-03-16T10:27:00.163Z,4.67
2023-03-16T10:29:22.050Z,4.27
2023-03-16T10:31:43.674Z,4.57
2023-03-16T10:34:08.464Z,3.17
2023-03-16T10:36:41.636Z,3.27
2023-03-16T10:39:08.618Z,4.43
2023-03-16T10:41:45.834Z,4.53
2023-03-16T10:44:16.918Z,4.70
2023-03-16T10:46:50.335Z,3.13
2023-03-16T10:49:25.808Z,3.17
2023-03-16T10:51:48.100Z,4.87
2023-03-16T10:54:22.997Z,4.43
2023-03-16T10:56:46.108Z,4.10
2023-03-16T10:59:32.079Z,4.97
2023-03-16T11:01:54.310Z,4.07
2023-03-16T11:04:19.185Z,2.60
2023-03-16T11:06:58.061Z,4.87
2023-03-16T11:09:26.120Z,3.20
2023-03-16T11:11:49.692Z,3.93
2023-03-16T11:14:15.597Z,3.30
2023-03-16T11:16:51.870Z,4.47
2023-03-16T11:19:41.514Z,3.77
2023-03-16T11:22:15.515Z,3.00
2023-03-16T11:24:52.536Z,3.03
2023-03-16T11:27:24.700Z,3.60
2023-03-16T11:30:04.834Z,4.33
2023-03-16T11:32:35.651Z,4.80
2023-03-16T11:34:57.359Z,4.87
2023-03-16T11:37:46.822Z,4.73
2023-03-16T11:40:47.407Z,3.10
2023-03-16T11:43:51.704Z,4.80
2023-03-16T11:46:25.228Z,3.80
2023-03-16T11:49:08.590Z,3.93
2023-03-16T11:51:58.254Z,3.80
2023-03-16T11:54:43.524Z,3.93
2023-03-16T11:57:41.547Z,4.10
2023-03-16T12:00:25.581Z,3.47
2023-03-16T12:03:14.972Z,3.73
2023-03-16T12:06:13.635Z,5.10
2023-03-16T12:09:05.397Z,5.78
2023-03-16T12:11:50.395Z,6.03
2023-03-16T12:14:33.924Z,3.58
2023-03-16T12:17:15.761Z,4.63
2023-03-16T12:20:05.849Z,6.63
2023-03-16T12:22:55.316Z,3.77
2023-03-16T12:25:45.932Z,4.37
2023-03-16T12:28:21.957Z,4.13
2023-03-16T12:31:10.610Z,4.23
2023-03-16T12:34:04.028Z,3.50
2023-03-16T12:36:57.613Z,4.23
2023-03-16T12:40:07.353Z,4.37
2023-03-16T12:42:52.389Z,3.90
2023-03-16T12:45:43.306Z,4.07
2023-03-16T12:48:21.257Z,4.27
2023-03-16T12:50:56.821Z,4.90
2023-03-16T12:53:51.832Z,4.43
2023-03-16T12:56:17.947Z,3.22
2023-03-16T12:58:48.520Z,4.50
2023-03-16T13:01:13.256Z,3.90
2023-03-16T13:03:34.954Z,4.73
2023-03-16T13:06:00.702Z,4.37
2023-03-16T13:08:23.366Z,2.60
2023-03-16T13:11:10.730Z,5.37
2023-03-16T13:13:34.120Z,3.70
2023-03-16T13:16:10.175Z,3.50
2023-03-16T13:18:45.193Z,5.17
2023-03-16T13:21:42.715Z,3.30
2023-03-16T13:24:28.928Z,2.87
2023-03-16T13:27:02.183Z,3.90
2023-03-16T13:29:30.906Z,4.93
2023-03-16T13:31:56.485Z,2.77
2023-03-16T13:34:49.971Z,3.27
2023-03-16T13:37:18.080Z,4.03
2023-03-16T13:39:40.619Z,4.47
2023-03-16T13:42:07.118Z,3.40
2023-03-16T13:44:30.209Z,3.73
2023-03-16T13:46:52.292Z,3.20
2023-03-16T13:49:13.864Z,3.80
2023-03-16T13:51:38.480Z,3.23
2023-03-16T13:56:28.884Z,2.17
2023-03-16T13:58:53.768Z,4.60
2023-03-16T14:01:31.124Z,4.97
2023-03-16T14:03:55.981Z,2.73
2023-03-16T14:06:31.461Z,4.43
2023-03-16T14:09:01.196Z,3.83
2023-03-16T14:11:23.034Z,2.57
2023-03-16T14:13:54.282Z,3.70
2023-03-16T14:16:19.781Z,3.37
2023-03-16T14:18:46.145Z,4.37
2023-03-16T14:21:27.067Z,4.07
2023-03-16T14:23:58.660Z,4.27
2023-03-16T14:26:24.621Z,8.80
2023-03-16T14:29:06.275Z,3.40
2023-03-16T14:31:38.232Z,5.00
2023-03-16T14:34:04.823Z,4.23
2023-03-16T14:36:36.808Z,2.43
2023-03-16T14:39:11.883Z,3.07
2023-03-16T14:41:33.643Z,2.97
2023-03-16T14:43:59.495Z,4.03
2023-03-16T14:46:42.103Z,2.67
2023-03-16T14:49:10.263Z,3.57
2023-03-16T14:51:41.101Z,3.07
2023-03-16T14:54:02.802Z,2.43
2023-03-16T14:56:34.810Z,3.33
2023-03-16T14:58:56.510Z,2.27
2023-03-16T15:01:18.237Z,3.90
2023-03-16T15:03:43.441Z,1.87
2023-03-16T15:06:05.883Z,1.97
2023-03-16T15:08:33.677Z,1.67
2023-03-16T15:11:00.916Z,3.50
2023-03-16T15:13:42.417Z,2.27
2023-03-16T15:16:05.793Z,2.23
2023-03-16T15:18:27.585Z,2.03
2023-03-16T15:20:52.085Z,4.37
2023-03-16T15:25:44.755Z,1.67
2023-03-16T15:28:17.484Z,3.43
2023-03-16T15:30:40.358Z,2.07
2023-03-16T15:33:01.989Z,2.40
2023-03-16T15:35:23.907Z,2.27
2023-03-16T15:37:45.603Z,3.43
2023-03-16T15:40:29.251Z,2.40
2023-03-16T15:42:51.626Z,3.50
2023-03-16T15:45:17.920Z,2.80
2023-03-16T15:47:41.341Z,1.97
2023-03-16T15:50:03.063Z,2.67
2023-03-16T15:52:36.724Z,1.87
2023-03-16T15:55:03.177Z,3.27
2023-03-16T15:57:25.810Z,3.40
2023-03-16T15:59:47.553Z,3.47
2023-03-16T16:02:31.983Z,3.80
2023-03-16T16:04:54.220Z,3.25
2023-03-16T16:07:15.865Z,2.17
2023-03-16T16:09:38.336Z,1.83
2023-03-16T16:12:00.011Z,4.10
2023-03-16T16:14:25.425Z,3.20
2023-03-16T16:16:47.129Z,2.50
2023-03-16T16:19:14.548Z,2.60
2023-03-16T16:21:36.748Z,2.63
2023-03-16T16:23:58.814Z,3.60
2023-03-16T16:26:41.604Z,2.83
2023-03-16T16:29:18.699Z,2.37
2023-03-16T16:31:40.661Z,3.27
2023-03-16T16:34:02.584Z,5.10
2023-03-16T16:36:25.244Z,2.10
2023-03-16T16:38:49.225Z,2.53
2023-03-16T16:41:32.018Z,3.42
2023-03-16T16:43:54.898Z,4.17
2023-03-16T16:46:22.675Z,2.27
2023-03-16T16:48:48.897Z,3.27
2023-03-16T16:51:21.563Z,3.53
2023-03-16T16:53:43.272Z,3.47
2023-03-16T16:56:12.576Z,2.77
2023-03-16T16:58:34.616Z,1.63
2023-03-16T17:00:58.907Z,3.57
2023-03-16T17:03:29.375Z,2.17
2023-03-16T17:05:52.969Z,3.07
2023-03-16T17:08:14.547Z,2.43
2023-03-16T17:10:37.760Z,2.80
2023-03-16T17:12:59.460Z,4.00
2023-03-16T17:15:29.212Z,6.03
2023-03-16T17:17:55.664Z,2.27
2023-03-16T17:20:25.446Z,3.10
2023-03-16T17:22:48.582Z,2.37
2023-03-16T17:25:10.357Z,4.10
2023-03-16T17:27:33.057Z,3.17
2023-03-16T17:29:56.061Z,5.23
2023-03-16T17:32:23.974Z,3.40
2023-03-16T17:34:45.823Z,5.60
2023-03-16T17:37:15.391Z,3.20
2023-03-16T17:39:38.112Z,2.70
2023-03-16T17:42:18.890Z,2.30
2023-03-16T17:44:44.553Z,2.73
2023-03-16T17:47:18.836Z,3.13
2023-03-16T17:49:40.967Z,3.17
2023-03-16T17:52:02.931Z,2.53
2023-03-16T17:54:24.534Z,2.97
2023-03-16T17:56:50.426Z,3.90
2023-03-16T17:59:23.086Z,2.37
2023-03-16T18:01:47.020Z,1.50
2023-03-16T18:04:25.993Z,2.65
2023-03-16T18:06:49.104Z,2.97
2023-03-16T18:09:11.057Z,2.73
2023-03-16T18:11:39.751Z,3.27
2023-03-16T18:14:04.000Z,3.10
2023-03-16T18:16:28.281Z,2.90
2023-03-16T18:18:57.643Z,2.42
2023-03-16T18:21:24.590Z,4.07
2023-03-16T18:23:46.702Z,4.13
2023-03-16T18:26:08.958Z,4.30
2023-03-16T18:28:32.005Z,7.10
2023-03-16T18:30:54.165Z,4.60
2023-03-16T18:33:39.326Z,3.67
2023-03-16T18:36:13.377Z,4.05
2023-03-16T18:38:42.499Z,4.78
2023-03-16T18:41:28.490Z,3.63
2023-03-16T18:43:53.256Z,5.50
2023-03-16T18:46:30.451Z,8.93
2023-03-16T18:48:59.222Z,4.53
2023-03-16T18:51:21.758Z,5.47
2023-03-16T18:53:43.369Z,3.70
2023-03-16T18:56:05.175Z,4.20
2023-03-16T18:58:26.913Z,4.23
2023-03-16T19:00:56.877Z,4.43
2023-03-16T19:03:26.150Z,4.57
2023-03-16T19:05:48.037Z,5.90
2023-03-16T19:08:14.788Z,4.90
2023-03-16T19:10:46.914Z,4.43
2023-03-16T19:13:19.183Z,3.10
2023-03-16T19:15:40.994Z,3.27
2023-03-16T19:18:02.661Z,5.13
2023-03-16T19:20:32.096Z,6.43
2023-03-16T19:23:06.086Z,5.97
2023-03-16T19:25:36.542Z,5.00
2023-03-16T19:27:59.993Z,3.90
2023-03-16T19:32:56.817Z,3.87
2023-03-16T19:35:20.595Z,3.00
2023-03-16T19:37:42.175Z,4.78
2023-03-16T19:40:05.208Z,4.00
2023-03-16T19:42:37.036Z,4.20
2023-03-16T19:44:59.017Z,3.07
2023-03-16T19:47:30.988Z,1.93
2023-03-16T19:49:52.772Z,2.50
2023-03-16T19:52:14.424Z,2.43
2023-03-16T19:54:38.633Z,2.70
2023-03-16T19:57:12.334Z,4.57
2023-03-16T19:59:35.484Z,2.30
2023-03-16T20:01:57.385Z,4.83
2023-03-16T20:04:23.546Z,4.50
2023-03-16T20:06:45.353Z,2.40
2023-03-16T20:09:07.996Z,3.07
2023-03-16T20:11:32.201Z,2.70
2023-03-16T20:13:55.454Z,3.22
2023-03-16T20:16:25.838Z,2.50
2023-03-16T20:18:53.759Z,3.57
2023-03-16T20:21:16.802Z,3.27
2023-03-16T20:23:39.159Z,3.87
2023-03-16T20:26:02.787Z,2.70
2023-03-16T20:28:39.993Z,2.45
2023-03-16T20:31:02.634Z,2.83
2023-03-16T20:33:26.806Z,4.00
2023-03-16T20:35:50.848Z,5.28
2023-03-16T20:38:14.359Z,3.97
2023-03-16T20:40:36.154Z,3.93
2023-03-16T20:42:57.766Z,2.93
2023-03-16T20:45:25.114Z,4.80
2023-03-16T20:47:47.019Z,3.03
2023-03-16T20:50:19.937Z,2.67
2023-03-16T20:52:41.526Z,3.87
2023-03-16T20:55:05.259Z,2.90
2023-03-16T20:57:29.682Z,3.40
2023-03-16T20:59:55.362Z,3.43
2023-03-16T21:02:34.944Z,4.87
2023-03-16T21:04:59.205Z,7.87
2023-03-16T21:07:21.215Z,12.57
2023-03-16T21:09:50.058Z,15.23
2023-03-16T21:12:28.288Z,14.87
2023-03-16T21:14:50.461Z,14.33
2023-03-16T21:17:31.227Z,13.37
2023-03-16T21:19:53.689Z,16.27
2023-03-16T21:22:29.370Z,11.93
2023-03-16T21:24:51.162Z,11.80
2023-03-16T21:27:30.015Z,14.90
2023-03-16T21:29:54.889Z,10.17
2023-03-16T21:32:22.158Z,7.50
2023-03-16T21:34:43.771Z,6.53
2023-03-16T21:37:14.253Z,5.33
2023-03-16T21:39:36.683Z,5.83
2023-03-16T21:41:58.257Z,5.20
2023-03-16T21:44:19.921Z,7.80
2023-03-16T21:46:42.521Z,6.53
2023-03-16T21:49:05.001Z,7.17
2023-03-16T21:51:32.727Z,5.87
2023-03-16T21:53:54.751Z,5.57
2023-03-16T21:56:22.539Z,6.03
2023-03-16T21:58:45.696Z,5.93
2023-03-16T22:01:32.246Z,7.32
2023-03-16T22:03:58.267Z,7.63
2023-03-16T22:06:22.691Z,6.23
2023-03-16T22:08:44.532Z,7.35
2023-03-16T22:11:16.708Z,7.93
2023-03-16T22:13:38.344Z,7.27
2023-03-16T22:16:00.076Z,7.37
2023-03-16T22:18:35.752Z,6.30
2023-03-16T22:20:59.845Z,5.83
2023-03-16T22:23:35.189Z,6.55
2023-03-16T22:25:56.968Z,5.60
2023-03-16T22:28:18.564Z,8.50
2023-03-16T22:30:41.735Z,9.10
2023-03-16T22:33:03.456Z,9.03
2023-03-16T22:35:38.289Z,8.27
2023-03-16T22:40:37.112Z,7.33
2023-03-16T22:43:04.260Z,7.43
2023-03-16T22:45:29.079Z,7.33
2023-03-16T22:47:52.501Z,6.97
2023-03-16T22:50:16.768Z,6.47
2023-03-16T22:52:38.966Z,6.53
2023-03-16T22:55:03.712Z,7.10
2023-03-16T22:57:25.478Z,5.67
2023-03-16T22:59:48.530Z,5.27
2023-03-16T23:02:15.008Z,5.93
2023-03-16T23:04:36.616Z,9.47
2023-03-16T23:06:59.012Z,6.73
2023-03-16T23:09:22.299Z,5.47
2023-03-16T23:11:46.340Z,6.87
2023-03-16T23:14:19.302Z,7.07
2023-03-16T23:16:41.921Z,5.20
2023-03-16T23:19:12.490Z,7.80
2023-03-16T23:21:43.889Z,5.57
2023-03-16T23:24:05.832Z,5.53
2023-03-16T23:26:28.553Z,4.47
2023-03-16T23:28:53.617Z,4.67
2023-03-16T23:31:17.670Z,5.13
2023-03-16T23:33:40.866Z,6.10
2023-03-16T23:36:02.589Z,4.37
2023-03-16T23:38:24.161Z,5.13
2023-03-16T23:40:46.674Z,6.13
2023-03-16T23:43:09.142Z,5.13
2023-03-16T23:45:41.996Z,5.00
2023-03-16T23:48:09.033Z,5.13
2023-03-16T23:50:36.625Z,5.07
2023-03-16T23:52:58.546Z,4.60
2023-03-16T23:55:21.414Z,3.77
2023-03-16T23:57:43.149Z,4.60
